Time;durP1;ratioP1;P1;durP2;ratioP2;P2;SDS_P1;SDS_P2;PMS_P1;PMS_P2;Temp;Humidity;BMP_temperature;BMP_pressure;BME280_temperature;BME280_humidity;BME280_pressure;Samples;Min_cycle;Max_cycle;Signal;HPM_P1;HPM_P2
2023/06/09 00:01:14;;;;;;;5.65;4.63;;;;;;;18.71;59.54;93692.94;4972669;28;20771;-74
2023/06/09 00:03:39;;;;;;;7.70;4.50;;;;;;;18.76;58.74;93695.31;4971224;28;20536;-74
2023/06/09 00:06:06;;;;;;;4.88;4.38;;;;;;;18.85;58.63;93711.94;4969260;28;20820;-73
2023/06/09 00:08:31;;;;;;;8.10;4.25;;;;;;;18.77;58.59;93696.06;4971206;28;20631;-73
2023/06/09 00:10:57;;;;;;;5.18;4.50;;;;;;;18.66;58.84;93689.75;4971893;28;20198;-74
2023/06/09 00:13:22;;;;;;;5.20;4.43;;;;;;;18.67;58.90;93692.09;4975000;28;20081;-73
2023/06/09 00:15:48;;;;;;;5.20;4.22;;;;;;;18.66;58.93;93700.53;4970737;28;22521;-73
2023/06/09 00:18:15;;;;;;;5.20;4.00;;;;;;;18.64;58.54;93700.88;4973954;28;20042;-73
2023/06/09 00:20:42;;;;;;;7.82;4.70;;;;;;;18.61;58.62;93701.63;4971448;28;20034;-73
2023/06/09 00:23:08;;;;;;;7.63;4.68;;;;;;;18.52;58.66;93690.34;4972528;28;20583;-74
2023/06/09 00:25:34;;;;;;;6.85;5.10;;;;;;;18.67;58.57;93702.84;4970576;28;20042;-74
2023/06/09 00:27:59;;;;;;;5.57;4.20;;;;;;;18.64;58.44;93708.97;4973535;28;20077;-74
2023/06/09 00:30:25;;;;;;;7.35;3.55;;;;;;;18.52;58.43;93701.13;4967006;28;20034;-72
2023/06/09 00:32:50;;;;;;;5.88;4.00;;;;;;;18.49;58.42;93704.53;4972927;28;20038;-73
2023/06/09 00:35:16;;;;;;;8.02;4.40;;;;;;;18.45;58.60;93691.03;4974360;28;20080;-74
2023/06/09 00:37:42;;;;;;;5.28;4.07;;;;;;;18.24;58.61;93663.03;4973538;28;20488;-74
2023/06/09 00:40:08;;;;;;;5.50;3.50;;;;;;;18.30;58.58;93669.66;4974745;28;20589;-73
2023/06/09 00:42:34;;;;;;;5.03;4.47;;;;;;;18.44;58.86;93700.25;4976671;28;20034;-73
2023/06/09 00:44:59;;;;;;;6.75;4.32;;;;;;;18.44;58.92;93694.06;4978052;28;20038;-74
2023/06/09 00:47:26;;;;;;;7.07;4.40;;;;;;;18.31;58.75;93668.53;4974211;28;20042;-73
2023/06/09 00:49:52;;;;;;;6.53;3.42;;;;;;;18.32;58.44;93683.56;4975902;28;20366;-74
2023/06/09 00:52:18;;;;;;;9.00;4.45;;;;;;;18.43;58.29;93697.94;4973417;28;20118;-74
2023/06/09 00:54:44;;;;;;;7.38;4.85;;;;;;;18.41;58.36;93697.50;4977635;28;20254;-73
2023/06/09 00:57:10;;;;;;;9.18;3.97;;;;;;;18.35;58.54;93697.06;4973462;28;20046;-74
2023/06/09 00:59:36;;;;;;;6.20;4.03;;;;;;;18.30;58.80;93688.50;4975141;28;20153;-74
2023/06/09 01:02:05;;;;;;;7.22;4.18;;;;;;;18.32;58.64;93697.00;4975184;28;20034;-74
2023/06/09 01:04:33;;;;;;;6.85;4.35;;;;;;;18.27;58.43;93686.56;4975519;28;20042;-73
2023/06/09 01:07:16;;;;;;;7.90;4.65;;;;;;;18.28;58.36;93696.19;4976596;28;20116;-73
2023/06/09 01:10:11;;;;;;;7.13;4.07;;;;;;;18.24;58.57;93690.72;4975036;28;20074;-73
2023/06/09 01:12:36;;;;;;;5.57;4.23;;;;;;;18.24;58.27;93689.97;4974567;28;20053;-74
2023/06/09 01:15:09;;;;;;;7.28;4.38;;;;;;;18.17;58.33;93673.72;4973511;28;20268;-74
2023/06/09 01:17:38;;;;;;;8.93;4.55;;;;;;;18.23;58.68;93689.22;4974281;28;20515;-73
2023/06/09 01:20:05;;;;;;;10.32;4.70;;;;;;;18.08;59.03;93678.59;4971846;28;20057;-73
2023/06/09 01:22:37;;;;;;;5.78;4.10;;;;;;;18.13;58.77;93683.66;4973629;28;20089;-73
2023/06/09 01:25:06;;;;;;;11.48;4.70;;;;;;;18.06;59.23;93680.88;4972519;28;20065;-73
2023/06/09 01:27:36;;;;;;;5.88;3.88;;;;;;;17.95;58.41;93659.19;4974601;28;20050;-73
2023/06/09 01:30:02;;;;;;;12.70;4.32;;;;;;;18.06;58.44;93683.56;4975891;28;20982;-73
2023/06/09 01:32:30;;;;;;;4.78;4.07;;;;;;;18.08;58.19;93692.06;4985785;28;20074;-73
2023/06/09 01:34:55;;;;;;;9.82;4.50;;;;;;;18.04;58.59;93692.75;4975557;28;20057;-73
2023/06/09 01:37:22;;;;;;;5.47;4.85;;;;;;;18.02;58.97;93700.44;4977006;28;20023;-73
2023/06/09 01:39:50;;;;;;;6.90;4.53;;;;;;;18.01;58.00;93690.81;4975828;28;20038;-73
2023/06/09 01:42:15;;;;;;;11.43;4.28;;;;;;;18.03;58.10;93707.38;4977528;28;20054;-73
2023/06/09 01:44:41;;;;;;;9.05;3.47;;;;;;;17.99;58.19;93706.53;4975283;28;20513;-73
2023/06/09 01:47:06;;;;;;;7.18;4.85;;;;;;;17.94;58.04;93709.53;4975281;28;20030;-73
2023/06/09 01:49:41;;;;;;;7.63;4.78;;;;;;;17.88;58.83;93705.59;4975977;28;20088;-73
2023/06/09 01:52:21;;;;;;;7.50;4.22;;;;;;;17.88;58.70;93699.41;4975196;28;20800;-73
2023/06/09 01:55:00;;;;;;;8.13;4.00;;;;;;;17.86;58.71;93694.41;4977661;28;20037;-73
2023/06/09 01:57:40;;;;;;;11.45;4.13;;;;;;;17.79;58.93;93702.38;4967266;28;20046;-74
2023/06/09 02:00:08;;;;;;;5.80;3.83;;;;;;;17.65;58.79;93677.16;4971870;28;20105;-74
2023/06/09 02:02:36;;;;;;;6.53;4.45;;;;;;;17.74;58.70;93699.97;4976142;28;20057;-73
2023/06/09 02:05:06;;;;;;;7.00;3.78;;;;;;;17.58;58.73;93680.50;4972997;28;20053;-73
2023/06/09 02:07:33;;;;;;;8.10;4.03;;;;;;;17.71;58.44;93700.69;4976780;28;20030;-73
2023/06/09 02:09:59;;;;;;;5.10;4.47;;;;;;;17.71;58.87;93691.84;4974109;28;20026;-73
2023/06/09 02:12:31;;;;;;;8.70;4.10;;;;;;;17.73;58.59;93700.34;4976514;28;20030;-74
2023/06/09 02:14:56;;;;;;;6.65;4.50;;;;;;;17.72;58.39;93702.25;4973355;28;20038;-73
2023/06/09 02:17:22;;;;;;;7.28;4.05;;;;;;;17.61;58.55;93694.00;4975163;28;20354;-73
2023/06/09 02:19:47;;;;;;;9.40;4.60;;;;;;;17.64;58.00;93695.22;4972659;28;20039;-74
2023/06/09 02:22:13;;;;;;;5.50;3.85;;;;;;;17.52;58.71;93690.00;4973336;28;20030;-73
2023/06/09 02:24:38;;;;;;;5.40;4.40;;;;;;;17.56;58.77;93696.22;4975274;28;20034;-73
2023/06/09 02:27:05;;;;;;;10.80;4.30;;;;;;;17.55;58.82;93700.81;4974264;28;20797;-73
2023/06/09 02:29:30;;;;;;;8.15;4.35;;;;;;;17.56;58.48;93699.69;4973194;28;20049;-73
2023/06/09 02:31:58;;;;;;;7.15;4.30;;;;;;;17.45;58.97;93693.34;4974031;28;20038;-73
2023/06/09 02:34:24;;;;;;;9.50;4.15;;;;;;;17.52;58.30;93696.16;4967932;28;20145;-74
2023/06/09 02:36:52;;;;;;;6.18;3.83;;;;;;;17.43;58.70;93692.94;4971328;28;20503;-73
2023/06/09 02:39:19;;;;;;;4.72;4.28;;;;;;;17.39;59.02;93699.38;4971946;28;20044;-73
2023/06/09 02:41:44;;;;;;;24.20;7.47;;;;;;;17.28;58.73;93688.44;4974230;28;20089;-73
2023/06/09 02:44:10;;;;;;;7.07;4.78;;;;;;;17.08;58.76;93668.88;4971618;28;20453;-73
2023/06/09 02:46:36;;;;;;;7.03;4.13;;;;;;;17.25;59.25;93707.22;4973202;28;20046;-74
2023/06/09 02:49:03;;;;;;;16.67;4.63;;;;;;;17.26;58.98;93700.72;4972754;28;20685;-74
2023/06/09 02:51:28;;;;;;;6.38;4.45;;;;;;;17.29;58.61;93700.75;4976168;28;20061;-73
2023/06/09 02:53:54;;;;;;;5.05;4.25;;;;;;;17.10;58.25;93672.00;4973142;28;20035;-73
2023/06/09 02:56:19;;;;;;;6.93;3.58;;;;;;;17.27;58.17;93702.25;4972486;28;20652;-74
2023/06/09 02:58:46;;;;;;;5.38;3.75;;;;;;;17.25;58.24;93707.22;4973152;28;20035;-74
2023/06/09 03:01:12;;;;;;;5.00;3.95;;;;;;;17.16;58.70;93710.88;4991424;28;20026;-74
2023/06/09 03:03:38;;;;;;;5.13;3.72;;;;;;;17.16;58.86;93705.50;4972419;28;20500;-73
2023/06/09 03:06:07;;;;;;;6.75;4.05;;;;;;;17.16;58.73;93702.81;4973038;28;20058;-73
2023/06/09 03:08:32;;;;;;;5.13;4.10;;;;;;;17.14;58.90;93710.47;4974663;28;20051;-73
2023/06/09 03:10:58;;;;;;;7.25;4.32;;;;;;;17.05;58.71;93696.47;4973804;28;20027;-73
2023/06/09 03:13:23;;;;;;;5.07;4.07;;;;;;;17.14;58.92;93698.97;4972430;28;20226;-73
2023/06/09 03:15:50;;;;;;;4.80;3.85;;;;;;;17.12;59.13;93696.59;4975819;28;20029;-74
2023/06/09 03:18:16;;;;;;;5.85;4.13;;;;;;;17.08;58.85;93678.84;4973707;28;20121;-73
2023/06/09 03:20:42;;;;;;;6.35;3.72;;;;;;;17.12;59.21;93696.59;4972959;28;20472;-74
2023/06/09 03:23:08;;;;;;;7.07;4.18;;;;;;;16.91;59.67;93677.41;4972722;28;20043;-74
2023/06/09 03:25:34;;;;;;;6.60;4.60;;;;;;;16.97;59.97;93680.56;4973827;28;20034;-74
2023/06/09 03:28:00;;;;;;;7.30;4.30;;;;;;;17.06;60.04;93692.63;4973687;28;20136;-74
2023/06/09 03:30:26;;;;;;;8.77;4.65;;;;;;;17.12;59.88;93696.59;4974092;28;20045;-73
2023/06/09 03:32:51;;;;;;;8.05;4.00;;;;;;;16.95;59.72;93659.44;4972582;28;20472;-73
2023/06/09 03:35:17;;;;;;;7.47;4.20;;;;;;;17.18;60.03;93689.03;4975605;28;20061;-73
2023/06/09 03:37:43;;;;;;;6.55;4.15;;;;;;;17.07;60.26;93683.44;4991315;28;20129;-73
2023/06/09 03:40:09;;;;;;;6.40;3.92;;;;;;;17.14;59.67;93683.63;4974962;28;21372;-73
2023/06/09 03:42:35;;;;;;;5.85;3.88;;;;;;;17.16;59.70;93697.44;4973790;28;20503;-73
2023/06/09 03:45:01;;;;;;;5.45;4.00;;;;;;;17.15;59.84;93685.16;4974863;28;20042;-74
2023/06/09 03:47:26;;;;;;;6.60;4.43;;;;;;;17.22;59.96;93697.94;4973755;28;20378;-74
2023/06/09 03:49:52;;;;;;;8.00;4.38;;;;;;;17.32;60.10;93699.25;4970549;28;20050;-73
2023/06/09 03:52:19;;;;;;;6.22;4.40;;;;;;;17.26;60.58;93704.16;4972586;28;20032;-74
2023/06/09 03:54:45;;;;;;;6.75;4.57;;;;;;;17.30;60.33;93696.94;4972575;28;20456;-74
2023/06/09 03:57:10;;;;;;;9.10;4.03;;;;;;;17.33;58.96;93695.44;4971183;28;20039;-74
2023/06/09 03:59:36;;;;;;;9.77;4.40;;;;;;;17.31;58.65;93681.56;4974852;28;20926;-74
2023/06/09 04:02:01;;;;;;;7.68;4.95;;;;;;;17.45;57.18;93703.34;4971154;28;20408;-74
2023/06/09 04:04:26;;;;;;;10.00;4.45;;;;;;;17.43;56.03;93689.47;4988822;28;20038;-73
2023/06/09 04:06:52;;;;;;;9.90;4.60;;;;;;;17.56;56.21;93690.84;4972441;28;20033;-74
2023/06/09 04:09:17;;;;;;;5.38;4.53;;;;;;;17.64;56.11;93705.19;4974204;28;20090;-73
2023/06/09 04:11:43;;;;;;;11.43;4.57;;;;;;;17.60;56.80;93710.50;4973692;28;20066;-74
2023/06/09 04:14:09;;;;;;;9.85;4.78;;;;;;;17.73;56.85;93711.88;4971769;28;20038;-73
2023/06/09 04:16:34;;;;;;;7.07;5.43;;;;;;;17.82;56.38;93704.31;4972721;28;20540;-73
2023/06/09 04:19:00;;;;;;;8.52;4.97;;;;;;;18.01;55.92;93720.41;4975169;28;20032;-73
2023/06/09 04:21:26;;;;;;;6.80;5.20;;;;;;;17.91;56.42;93709.44;4971990;28;20680;-73
2023/06/09 04:23:51;;;;;;;16.02;6.32;;;;;;;18.16;56.12;93726.00;4973970;28;20465;-73
2023/06/09 04:26:17;;;;;;;7.45;5.57;;;;;;;17.88;56.93;93716.34;4989028;28;20433;-73
2023/06/09 04:28:42;;;;;;;8.15;5.20;;;;;;;18.12;56.12;93711.72;4969360;28;20569;-73
2023/06/09 04:31:08;;;;;;;8.98;5.40;;;;;;;18.14;55.17;93709.44;4972993;28;20387;-73
2023/06/09 04:33:36;;;;;;;6.70;5.47;;;;;;;17.88;55.97;93718.25;4973472;28;20022;-73
2023/06/09 04:36:03;;;;;;;10.20;5.57;;;;;;;17.65;55.76;93715.56;4971172;28;20148;-73
2023/06/09 04:38:32;;;;;;;10.38;5.45;;;;;;;17.93;55.53;93724.13;4972372;28;20038;-75
2023/06/09 04:41:01;;;;;;;8.02;5.90;;;;;;;17.95;55.54;93727.22;4972843;28;20060;-74
2023/06/09 04:43:28;;;;;;;9.27;6.32;;;;;;;18.14;54.80;93728.28;4972288;28;20125;-73
2023/06/09 04:45:55;;;;;;;8.30;5.88;;;;;;;18.30;54.55;93720.81;4972097;28;20022;-73
2023/06/09 04:48:21;;;;;;;29.10;6.10;;;;;;;18.32;55.11;93730.09;4972078;28;20045;-73
2023/06/09 04:50:47;;;;;;;9.50;7.05;;;;;;;18.32;54.82;93730.09;4970064;28;20516;-73
2023/06/09 04:53:15;;;;;;;10.57;5.30;;;;;;;18.35;53.76;93717.81;4972694;28;20038;-74
2023/06/09 04:55:41;;;;;;;9.07;5.88;;;;;;;18.52;53.54;93717.28;4986141;28;20077;-73
2023/06/09 04:58:06;;;;;;;8.45;6.50;;;;;;;18.36;53.33;93719.38;4972308;28;20038;-75
2023/06/09 05:00:32;;;;;;;9.50;6.00;;;;;;;18.47;52.37;93733.75;4971759;28;20377;-74
2023/06/09 05:02:57;;;;;;;13.13;6.57;;;;;;;18.42;52.94;93734.84;4972885;28;20513;-73
2023/06/09 05:05:23;;;;;;;9.15;6.25;;;;;;;18.54;53.21;93733.84;4970929;28;20141;-74
2023/06/09 05:07:49;;;;;;;9.75;5.95;;;;;;;18.77;51.47;93733.78;4974095;28;20390;-73
2023/06/09 05:10:15;;;;;;;11.20;5.88;;;;;;;18.99;51.78;93737.50;4970034;28;20058;-74
2023/06/09 05:12:41;;;;;;;13.00;7.97;;;;;;;18.82;50.49;93736.16;4973440;28;20033;-73
2023/06/09 05:15:07;;;;;;;11.57;6.20;;;;;;;18.92;50.02;93718.56;4971018;28;20046;-73
2023/06/09 05:17:33;;;;;;;9.88;6.68;;;;;;;18.82;50.46;93726.13;4971565;28;20552;-73
2023/06/09 05:19:59;;;;;;;8.57;6.15;;;;;;;18.60;50.01;93718.91;4969904;28;20149;-73
2023/06/09 05:22:25;;;;;;;8.35;6.78;;;;;;;18.87;49.08;93712.34;4971546;28;20598;-73
2023/06/09 05:24:50;;;;;;;8.13;6.53;;;;;;;18.87;49.15;93716.97;4971085;28;20464;-73
2023/06/09 05:27:16;;;;;;;10.52;6.40;;;;;;;18.94;49.34;93710.88;4974900;28;20077;-73
2023/06/09 05:29:41;;;;;;;12.25;7.07;;;;;;;18.99;49.26;93724.81;4976157;28;20050;-72
2023/06/09 05:32:07;;;;;;;10.65;6.68;;;;;;;18.85;48.66;93720.03;4948911;28;20046;-72
2023/06/09 05:34:32;;;;;;;9.23;6.57;;;;;;;18.88;48.54;93721.97;4972931;28;20042;-74
2023/06/09 05:36:57;;;;;;;7.78;6.07;;;;;;;18.97;47.82;93721.69;4976081;28;20022;-73
2023/06/09 05:39:23;;;;;;;11.07;5.93;;;;;;;19.04;47.74;93719.09;4975357;28;20053;-72
2023/06/09 05:41:49;;;;;;;13.45;6.65;;;;;;;19.13;48.19;93710.72;4975331;28;20129;-74
2023/06/09 05:44:14;;;;;;;14.30;6.63;;;;;;;19.20;47.89;93708.88;4974178;28;20047;-73
2023/06/09 05:46:40;;;;;;;10.00;6.53;;;;;;;19.19;49.03;93711.94;4972079;28;20042;-72
2023/06/09 05:49:06;;;;;;;13.55;6.32;;;;;;;19.22;48.69;93713.88;4975170;28;20142;-73
2023/06/09 05:51:35;;;;;;;11.32;6.03;;;;;;;19.39;47.94;93697.13;4974804;28;20118;-73
2023/06/09 05:54:00;;;;;;;12.38;6.80;;;;;;;19.44;47.70;93694.09;4974332;28;20038;-72
2023/06/09 05:56:26;;;;;;;9.77;6.32;;;;;;;19.47;46.39;93701.44;4973234;28;20398;-73
2023/06/09 05:58:52;;;;;;;8.52;6.03;;;;;;;19.66;47.10;93709.31;4974172;28;20145;-73
2023/06/09 06:01:19;;;;;;;11.63;6.53;;;;;;;19.66;48.01;93714.72;4975329;28;20023;-72
2023/06/09 06:03:44;;;;;;;8.68;5.38;;;;;;;19.68;46.83;93712.44;4973968;28;20113;-73
2023/06/09 06:06:10;;;;;;;8.85;6.20;;;;;;;19.53;47.77;93705.38;4975736;28;20092;-72
2023/06/09 06:08:38;;;;;;;13.13;6.30;;;;;;;19.64;46.99;93695.44;4974655;28;20580;-72
2023/06/09 06:11:03;;;;;;;9.73;6.53;;;;;;;19.86;47.80;93695.59;4976494;28;20046;-72
2023/06/09 06:13:29;;;;;;;9.60;6.55;;;;;;;19.95;46.80;93693.34;4971064;28;20043;-72
2023/06/09 06:15:54;;;;;;;6.30;5.53;;;;;;;19.88;46.97;93698.72;4976382;28;20022;-73
2023/06/09 06:18:20;;;;;;;7.63;5.80;;;;;;;20.06;47.12;93705.00;4973976;28;20053;-73
2023/06/09 06:20:45;;;;;;;10.35;6.05;;;;;;;20.01;46.02;93694.56;4976062;28;20039;-72
2023/06/09 06:23:11;;;;;;;6.88;5.47;;;;;;;20.12;46.59;93690.03;4972422;28;20042;-73
2023/06/09 06:25:36;;;;;;;9.15;5.88;;;;;;;20.51;45.65;93703.78;4973254;28;20577;-73
2023/06/09 06:28:03;;;;;;;8.68;4.90;;;;;;;20.28;45.42;93690.53;4972558;28;20041;-72
2023/06/09 06:30:29;;;;;;;8.15;5.38;;;;;;;20.45;44.52;93700.66;4973100;28;20049;-73
2023/06/09 06:32:54;;;;;;;5.03;4.13;;;;;;;20.40;45.09;93702.94;4988179;28;20035;-73
2023/06/09 06:35:28;;;;;;;8.20;4.70;;;;;;;20.31;45.03;93703.28;4973864;28;20046;-73
2023/06/09 06:37:54;;;;;;;6.88;4.47;;;;;;;20.46;45.33;93710.31;4974071;28;20050;-72
2023/06/09 06:40:19;;;;;;;12.05;5.35;;;;;;;20.49;45.29;93701.44;4971912;28;20148;-72
2023/06/09 06:42:45;;;;;;;5.30;4.57;;;;;;;20.66;45.13;93712.72;4973023;28;20101;-72
2023/06/09 06:45:10;;;;;;;7.50;4.93;;;;;;;20.89;45.80;93702.44;4972820;28;20055;-73
2023/06/09 06:47:36;;;;;;;10.40;5.15;;;;;;;20.83;44.83;93704.69;4974746;28;20519;-72
2023/06/09 06:50:03;;;;;;;9.68;4.45;;;;;;;20.75;45.78;93703.13;4971787;28;20070;-73
2023/06/09 06:52:28;;;;;;;11.10;4.15;;;;;;;20.71;45.33;93688.06;4972868;28;20833;-72
2023/06/09 06:54:53;;;;;;;9.57;5.10;;;;;;;20.59;45.01;93708.84;4973547;28;20045;-73
2023/06/09 06:57:19;;;;;;;7.63;4.60;;;;;;;20.55;45.36;93705.34;4972773;28;20038;-72
2023/06/09 06:59:44;;;;;;;11.90;4.90;;;;;;;20.80;46.25;93696.56;4974961;28;20421;-73
2023/06/09 07:02:10;;;;;;;7.07;4.97;;;;;;;21.02;46.06;93698.25;4971676;28;20038;-72
2023/06/09 07:04:36;;;;;;;7.78;4.93;;;;;;;21.18;45.93;93690.56;4972921;28;20041;-73
2023/06/09 07:07:02;;;;;;;7.85;5.65;;;;;;;21.33;44.61;93694.06;4975589;28;20396;-72
2023/06/09 07:09:28;;;;;;;12.98;5.22;;;;;;;21.43;44.29;93694.09;4973622;28;20815;-72
2023/06/09 07:11:53;;;;;;;13.20;4.80;;;;;;;21.31;43.73;93691.75;4972488;28;20038;-72
2023/06/09 07:14:19;;;;;;;12.07;5.13;;;;;;;21.41;43.38;93684.81;4974496;28;20046;-73
2023/06/09 07:16:44;;;;;;;5.00;4.13;;;;;;;21.27;42.82;93690.19;4958452;28;20034;-73
2023/06/09 07:19:10;;;;;;;8.02;5.15;;;;;;;21.21;43.73;93687.09;4958592;28;20566;-73
2023/06/09 07:21:35;;;;;;;10.98;5.13;;;;;;;21.51;43.73;93694.09;4966603;28;20130;-72
2023/06/09 07:24:03;;;;;;;6.05;4.80;;;;;;;21.70;43.23;93685.66;4969566;28;20038;-73
2023/06/09 07:26:29;;;;;;;10.48;5.63;;;;;;;21.60;43.14;93694.53;4967870;28;20533;-72
2023/06/09 07:28:54;;;;;;;8.13;4.70;;;;;;;21.68;43.27;93687.94;4966985;28;20050;-74
2023/06/09 07:31:20;;;;;;;9.52;4.82;;;;;;;21.28;44.28;93692.50;4965783;28;20030;-72
2023/06/09 07:33:46;;;;;;;7.15;3.90;;;;;;;21.10;44.54;93680.09;4970214;28;20027;-72
2023/06/09 07:36:13;;;;;;;8.40;4.75;;;;;;;21.23;45.52;93692.09;4968931;28;20126;-73
2023/06/09 07:38:39;;;;;;;10.85;4.65;;;;;;;21.21;44.48;93676.28;4972590;28;20038;-72
2023/06/09 07:41:04;;;;;;;13.55;5.38;;;;;;;21.45;44.46;93691.00;4990785;28;20505;-72
2023/06/09 07:43:30;;;;;;;9.00;4.13;;;;;;;21.65;44.47;93689.50;4972055;28;20178;-72
2023/06/09 07:45:56;;;;;;;10.25;4.22;;;;;;;21.69;43.60;93681.38;4973422;28;20026;-73
2023/06/09 07:48:22;;;;;;;6.68;4.15;;;;;;;21.57;43.94;93677.13;4971993;28;20030;-72
2023/06/09 07:50:47;;;;;;;6.72;3.80;;;;;;;21.62;44.19;93675.97;4970933;28;20038;-73
2023/06/09 07:53:12;;;;;;;5.50;4.15;;;;;;;21.84;43.35;93674.81;4971265;28;20421;-72
2023/06/09 07:55:38;;;;;;;7.75;4.07;;;;;;;21.88;43.18;93673.66;4970034;28;20038;-73
2023/06/09 07:58:03;;;;;;;6.00;3.90;;;;;;;21.90;42.79;93672.50;4974519;28;20030;-72
2023/06/09 08:00:28;;;;;;;10.77;3.92;;;;;;;21.81;42.91;93689.09;4971113;28;20038;-73
2023/06/09 08:03:03;;;;;;;10.43;4.32;;;;;;;22.08;43.99;93674.03;4990128;28;20042;-73
2023/06/09 08:05:30;;;;;;;;;;;;;;;22.12;43.06;93680.19;4971840;28;20050;-73
2023/06/09 08:07:57;;;;;;;9.38;4.70;;;;;;;22.03;43.54;93660.88;4973025;28;20289;-73
2023/06/09 08:10:23;;;;;;;8.32;4.30;;;;;;;22.16;41.86;93670.13;4973729;28;20029;-72
2023/06/09 08:12:52;;;;;;;7.50;4.60;;;;;;;22.05;41.93;93685.63;4971232;28;20026;-73
2023/06/09 08:15:18;;;;;;;7.40;4.18;;;;;;;21.70;42.32;93645.06;4972507;28;20030;-72
2023/06/09 08:17:43;;;;;;;7.28;4.22;;;;;;;22.02;43.44;93669.38;4970750;28;20042;-72
2023/06/09 08:20:09;;;;;;;8.38;4.10;;;;;;;22.15;43.38;93674.00;4970829;28;20050;-73
2023/06/09 08:22:34;;;;;;;11.45;4.07;;;;;;;21.95;42.94;93663.97;4970186;28;20121;-72
2023/06/09 08:25:00;;;;;;;12.65;4.88;;;;;;;22.09;43.33;93669.38;4975168;28;20034;-72
2023/06/09 08:27:25;;;;;;;9.13;4.18;;;;;;;21.90;43.52;93659.75;4974202;28;20050;-74
2023/06/09 08:29:51;;;;;;;9.57;4.80;;;;;;;21.89;43.80;93666.31;4975565;28;20034;-73
2023/06/09 08:32:17;;;;;;;7.20;4.40;;;;;;;22.05;44.64;93669.38;4973430;28;20035;-73
2023/06/09 08:34:43;;;;;;;5.40;4.18;;;;;;;22.13;42.70;93670.91;4974176;28;20046;-73
2023/06/09 08:37:09;;;;;;;8.60;4.45;;;;;;;22.07;43.85;93661.63;4974638;28;20488;-72
2023/06/09 08:39:35;;;;;;;9.18;4.50;;;;;;;22.13;42.73;93667.44;4974220;28;20033;-73
2023/06/09 08:42:14;;;;;;;9.15;4.78;;;;;;;22.08;42.26;93660.47;4969904;28;20520;-73
2023/06/09 08:44:43;;;;;;;6.40;4.15;;;;;;;22.13;42.29;93660.09;4982972;28;20034;-73
2023/06/09 08:47:11;;;;;;;6.80;4.53;;;;;;;21.93;43.03;93658.94;4971328;28;20284;-73
2023/06/09 08:49:37;;;;;;;9.57;4.75;;;;;;;22.05;43.57;93655.03;4972230;28;20030;-73
2023/06/09 08:52:04;;;;;;;9.10;5.03;;;;;;;21.96;43.48;93654.69;4971210;28;20100;-73
2023/06/09 08:54:30;;;;;;;6.57;4.15;;;;;;;22.07;43.25;93650.81;4972144;28;20330;-73
2023/06/09 08:56:56;;;;;;;8.30;4.50;;;;;;;22.09;43.45;93647.72;4971738;28;20661;-72
2023/06/09 08:59:22;;;;;;;8.35;4.28;;;;;;;22.09;42.59;93653.91;4973512;28;20399;-72
2023/06/09 09:01:51;;;;;;;12.82;6.00;;;;;;;21.94;43.15;93644.25;4973893;28;20039;-72
2023/06/09 09:04:17;;;;;;;8.70;5.18;;;;;;;22.11;42.34;93646.16;4976141;28;20455;-73
2023/06/09 09:06:43;;;;;;;9.98;5.45;;;;;;;21.95;42.18;93645.78;4975554;28;20022;-74
2023/06/09 09:09:08;;;;;;;6.97;4.78;;;;;;;21.95;43.09;93648.50;4976751;28;20053;-74
2023/06/09 09:11:34;;;;;;;7.20;4.72;;;;;;;22.18;43.65;93653.50;4975971;28;20046;-73
2023/06/09 09:14:10;;;;;;;8.52;4.55;;;;;;;22.23;42.41;93643.06;4974712;28;20030;-74
2023/06/09 09:16:35;;;;;;;9.40;5.10;;;;;;;22.01;42.50;93635.34;4965962;28;20093;-74
2023/06/09 09:19:02;;;;;;;6.22;4.75;;;;;;;21.95;42.29;93648.50;4976294;28;20440;-74
2023/06/09 09:21:28;;;;;;;8.75;4.68;;;;;;;21.97;43.28;93635.34;4976751;28;20520;-73
2023/06/09 09:24:00;;;;;;;5.90;4.90;;;;;;;22.21;44.81;93637.25;4976505;28;20045;-75
2023/06/09 09:26:28;;;;;;;6.50;4.32;;;;;;;22.39;41.62;93622.91;4975753;28;20046;-73
2023/06/09 09:28:56;;;;;;;11.98;5.35;;;;;;;22.49;40.83;93632.91;4968044;28;20689;-75
2023/06/09 09:31:30;;;;;;;6.57;4.53;;;;;;;22.40;41.89;93619.00;4975494;28;20030;-74
2023/06/09 09:33:55;;;;;;;7.03;4.80;;;;;;;22.43;41.92;93618.25;4976961;28;20056;-73
2023/06/09 09:36:21;;;;;;;6.90;4.65;;;;;;;22.54;42.30;93625.16;4975542;28;20161;-74
2023/06/09 09:38:46;;;;;;;9.23;5.15;;;;;;;22.64;42.86;93623.56;4974589;28;20048;-74
2023/06/09 09:41:15;;;;;;;12.80;4.72;;;;;;;22.25;41.24;93600.09;4975569;28;20114;-75
2023/06/09 09:43:41;;;;;;;7.72;3.90;;;;;;;22.32;41.14;93620.97;4975686;28;20133;-73
2023/06/09 09:46:07;;;;;;;8.30;5.00;;;;;;;22.44;41.29;93608.97;4975001;28;20030;-74
2023/06/09 09:48:36;;;;;;;9.35;4.72;;;;;;;22.19;41.54;93612.47;4974893;28;20034;-73
2023/06/09 09:51:02;;;;;;;7.13;4.57;;;;;;;22.40;41.38;93602.75;4973803;28;20329;-74
2023/06/09 09:53:28;;;;;;;11.50;4.70;;;;;;;22.52;40.41;93605.03;4976701;28;20043;-74
2023/06/09 09:55:55;;;;;;;8.82;4.20;;;;;;;22.59;40.20;93613.13;4971158;28;20493;-74
2023/06/09 09:58:29;;;;;;;6.50;4.03;;;;;;;22.79;41.46;93614.22;4974983;28;20014;-74
2023/06/09 10:00:57;;;;;;;9.98;4.18;;;;;;;22.85;39.67;93599.06;4972909;28;20027;-74
2023/06/09 10:03:23;;;;;;;8.63;4.85;;;;;;;22.91;40.84;93599.47;4975277;28;20552;-73
2023/06/09 10:05:49;;;;;;;7.93;4.88;;;;;;;22.89;39.80;93605.28;4973283;28;20559;-74
2023/06/09 10:08:21;;;;;;;5.63;3.88;;;;;;;22.67;39.49;93596.47;4975229;28;20047;-74
2023/06/09 10:10:51;;;;;;;5.38;4.38;;;;;;;22.76;39.72;93606.88;4972018;28;20045;-74
2023/06/09 10:13:17;;;;;;;8.45;4.70;;;;;;;22.73;39.66;93586.00;4972636;28;20742;-74
2023/06/09 10:15:43;;;;;;;12.52;4.13;;;;;;;23.05;39.68;93602.09;4976255;28;20018;-73
2023/06/09 10:18:10;;;;;;;5.15;4.00;;;;;;;22.95;39.83;93589.38;4974152;28;20165;-73
2023/06/09 10:20:36;;;;;;;4.82;3.58;;;;;;;22.92;39.00;93595.59;4974346;28;20433;-73
2023/06/09 10:23:02;;;;;;;7.35;3.72;;;;;;;22.97;38.62;93593.25;4973681;28;20061;-73
2023/06/09 10:25:29;;;;;;;5.28;4.05;;;;;;;23.06;37.68;93590.84;4975116;28;20520;-74
2023/06/09 10:27:55;;;;;;;6.95;3.63;;;;;;;22.86;38.02;93592.53;4974327;28;20054;-73
2023/06/09 10:30:21;;;;;;;7.15;3.50;;;;;;;22.84;37.52;93589.38;4974523;28;20042;-73
2023/06/09 10:32:52;;;;;;;5.07;3.30;;;;;;;22.72;38.60;93582.50;4973711;28;20043;-73
2023/06/09 10:35:22;;;;;;;7.40;3.53;;;;;;;22.77;37.96;93583.25;4991350;28;20084;-73
2023/06/09 10:37:50;;;;;;;8.70;3.75;;;;;;;22.89;38.41;93585.53;4990355;28;20038;-73
2023/06/09 10:40:47;;;;;;;6.05;4.43;;;;;;;23.01;37.45;93571.50;4970801;28;20026;-74
2023/06/09 10:43:31;;;;;;;6.28;3.67;;;;;;;23.14;37.00;93581.50;4974902;28;20121;-73
2023/06/09 10:45:57;;;;;;;6.40;3.37;;;;;;;23.09;36.89;93573.00;4974973;28;20374;-72
2023/06/09 10:48:46;;;;;;;7.97;3.85;;;;;;;23.25;38.05;93578.72;4973890;28;20057;-73
2023/06/09 10:51:26;;;;;;;4.75;3.80;;;;;;;23.39;36.94;93581.31;4966291;28;20054;-73
2023/06/09 10:54:12;;;;;;;6.93;3.30;;;;;;;23.58;36.82;93572.66;4972193;28;20077;-73
2023/06/09 10:56:52;;;;;;;8.30;4.03;;;;;;;23.68;39.01;93571.00;4988222;28;20046;-72
2023/06/09 10:59:23;;;;;;;5.82;3.97;;;;;;;23.77;40.87;93568.59;4969715;28;20478;-73
2023/06/09 11:02:12;;;;;;;7.20;3.97;;;;;;;23.72;36.64;93539.16;4979683;28;20084;-73
2023/06/09 11:04:40;;;;;;;4.35;3.42;;;;;;;23.72;35.42;93555.47;4968035;28;20042;-74
2023/06/09 11:07:12;;;;;;;5.72;4.10;;;;;;;24.06;36.37;93563.66;4970046;28;20026;-73
2023/06/09 11:09:38;;;;;;;4.32;3.78;;;;;;;24.02;34.46;93541.97;4972289;28;20970;-73
2023/06/09 11:12:05;;;;;;;5.43;3.63;;;;;;;24.00;34.74;93555.16;4986615;28;20054;-74
2023/06/09 11:14:46;;;;;;;7.18;3.92;;;;;;;24.22;37.53;93557.69;4967200;28;20070;-74
2023/06/09 11:17:39;;;;;;;3.85;3.25;;;;;;;24.02;34.14;93557.50;4969123;28;20050;-73
2023/06/09 11:20:11;;;;;;;5.43;3.55;;;;;;;23.88;35.52;93547.56;4967743;28;20049;-73
2023/06/09 11:22:46;;;;;;;6.68;3.45;;;;;;;23.82;34.59;93554.59;4970831;28;20035;-73
2023/06/09 11:25:17;;;;;;;7.35;3.40;;;;;;;24.02;34.04;93552.06;4968199;28;20481;-74
2023/06/09 11:27:48;;;;;;;5.25;2.97;;;;;;;24.12;37.27;93534.13;4971322;28;20592;-74
2023/06/09 11:30:18;;;;;;;5.60;3.08;;;;;;;24.23;33.76;93540.22;4968234;28;20153;-73
2023/06/09 11:32:47;;;;;;;4.43;3.03;;;;;;;24.53;32.80;93542.19;4970813;28;20539;-73